sensor_id;sensor_type;location;lat;lon;timestamp;P1;durP1;ratioP1;P2;durP2;ratioP2
5995;SDS011;3026;53.612;7.278;2023-02-24T00:00:06;6.93;;;1.40;;
5995;SDS011;3026;53.612;7.278;2023-02-24T00:02:56;6.27;;;1.23;;
5995;SDS011;3026;53.612;7.278;2023-02-24T00:05:24;3.23;;;1.20;;
5995;SDS011;3026;53.612;7.278;2023-02-24T00:07:51;6.13;;;1.43;;
5995;SDS011;3026;53.612;7.278;2023-02-24T00:10:18;5.30;;;1.27;;
5995;SDS011;3026;53.612;7.278;2023-02-24T00:12:45;5.83;;;0.97;;
5995;SDS011;3026;53.612;7.278;2023-02-24T00:15:14;4.87;;;1.70;;
5995;SDS011;3026;53.612;7.278;2023-02-24T00:17:42;5.83;;;1.47;;
5995;SDS011;3026;53.612;7.278;2023-02-24T00:20:09;5.70;;;1.10;;
5995;SDS011;3026;53.612;7.278;2023-02-24T00:22:38;3.63;;;1.27;;
5995;SDS011;3026;53.612;7.278;2023-02-24T00:25:05;5.83;;;1.43;;
5995;SDS011;3026;53.612;7.278;2023-02-24T00:27:33;3.43;;;1.37;;
5995;SDS011;3026;53.612;7.278;2023-02-24T00:30:00;5.67;;;1.30;;
5995;SDS011;3026;53.612;7.278;2023-02-24T00:32:31;4.40;;;0.97;;
5995;SDS011;3026;53.612;7.278;2023-02-24T00:34:59;3.53;;;1.00;;
5995;SDS011;3026;53.612;7.278;2023-02-24T00:37:26;2.07;;;0.93;;
5995;SDS011;3026;53.612;7.278;2023-02-24T00:39:53;2.20;;;1.10;;
5995;SDS011;3026;53.612;7.278;2023-02-24T00:42:22;5.37;;;1.20;;
5995;SDS011;3026;53.612;7.278;2023-02-24T00:44:50;7.17;;;1.43;;
5995;SDS011;3026;53.612;7.278;2023-02-24T00:47:18;3.80;;;0.97;;
5995;SDS011;3026;53.612;7.278;2023-02-24T00:49:50;2.90;;;1.20;;
5995;SDS011;3026;53.612;7.278;2023-02-24T00:52:17;5.57;;;1.53;;
5995;SDS011;3026;53.612;7.278;2023-02-24T00:54:48;9.70;;;1.30;;
5995;SDS011;3026;53.612;7.278;2023-02-24T00:57:15;6.67;;;1.47;;
5995;SDS011;3026;53.612;7.278;2023-02-24T00:59:45;5.03;;;1.43;;
5995;SDS011;3026;53.612;7.278;2023-02-24T01:02:14;5.17;;;1.33;;
5995;SDS011;3026;53.612;7.278;2023-02-24T01:04:41;14.67;;;2.03;;
5995;SDS011;3026;53.612;7.278;2023-02-24T01:07:10;4.33;;;1.43;;
5995;SDS011;3026;53.612;7.278;2023-02-24T01:09:38;4.53;;;1.53;;
5995;SDS011;3026;53.612;7.278;2023-02-24T01:12:07;4.77;;;1.10;;
5995;SDS011;3026;53.612;7.278;2023-02-24T01:14:57;5.90;;;1.30;;
5995;SDS011;3026;53.612;7.278;2023-02-24T01:17:30;7.53;;;1.10;;
5995;SDS011;3026;53.612;7.278;2023-02-24T01:19:57;4.17;;;1.23;;
5995;SDS011;3026;53.612;7.278;2023-02-24T01:22:26;4.03;;;1.17;;
5995;SDS011;3026;53.612;7.278;2023-02-24T01:24:53;9.27;;;1.43;;
5995;SDS011;3026;53.612;7.278;2023-02-24T01:27:20;6.50;;;1.17;;
5995;SDS011;3026;53.612;7.278;2023-02-24T01:29:47;4.20;;;1.30;;
5995;SDS011;3026;53.612;7.278;2023-02-24T01:32:15;4.70;;;1.33;;
5995;SDS011;3026;53.612;7.278;2023-02-24T01:34:44;9.07;;;1.37;;
5995;SDS011;3026;53.612;7.278;2023-02-24T01:37:12;9.47;;;1.40;;
5995;SDS011;3026;53.612;7.278;2023-02-24T01:39:43;6.07;;;1.53;;
5995;SDS011;3026;53.612;7.278;2023-02-24T01:42:11;4.90;;;1.50;;
5995;SDS011;3026;53.612;7.278;2023-02-24T01:45:04;4.70;;;1.67;;
5995;SDS011;3026;53.612;7.278;2023-02-24T01:47:36;9.03;;;2.50;;
5995;SDS011;3026;53.612;7.278;2023-02-24T01:50:04;4.53;;;1.33;;
5995;SDS011;3026;53.612;7.278;2023-02-24T01:52:34;9.77;;;1.63;;
5995;SDS011;3026;53.612;7.278;2023-02-24T01:55:07;8.17;;;1.43;;
5995;SDS011;3026;53.612;7.278;2023-02-24T01:57:40;4.77;;;1.23;;
5995;SDS011;3026;53.612;7.278;2023-02-24T02:00:10;7.03;;;1.20;;
5995;SDS011;3026;53.612;7.278;2023-02-24T02:02:57;4.00;;;1.47;;
5995;SDS011;3026;53.612;7.278;2023-02-24T02:05:28;5.50;;;1.60;;
5995;SDS011;3026;53.612;7.278;2023-02-24T02:07:55;7.47;;;1.20;;
5995;SDS011;3026;53.612;7.278;2023-02-24T02:10:24;8.83;;;1.30;;
5995;SDS011;3026;53.612;7.278;2023-02-24T02:12:52;3.83;;;1.40;;
5995;SDS011;3026;53.612;7.278;2023-02-24T02:15:21;6.17;;;0.90;;
5995;SDS011;3026;53.612;7.278;2023-02-24T02:17:50;2.40;;;0.97;;
5995;SDS011;3026;53.612;7.278;2023-02-24T02:20:37;5.90;;;1.20;;
5995;SDS011;3026;53.612;7.278;2023-02-24T02:23:25;7.47;;;1.37;;
5995;SDS011;3026;53.612;7.278;2023-02-24T02:29:42;3.57;;;1.90;;
5995;SDS011;3026;53.612;7.278;2023-02-24T02:32:35;4.73;;;1.00;;
5995;SDS011;3026;53.612;7.278;2023-02-24T02:35:17;8.10;;;1.33;;
5995;SDS011;3026;53.612;7.278;2023-02-24T02:37:49;3.27;;;1.30;;
5995;SDS011;3026;53.612;7.278;2023-02-24T02:40:23;9.93;;;2.07;;
5995;SDS011;3026;53.612;7.278;2023-02-24T02:42:55;7.33;;;1.30;;
5995;SDS011;3026;53.612;7.278;2023-02-24T02:45:28;7.25;;;1.15;;
5995;SDS011;3026;53.612;7.278;2023-02-24T02:48:05;7.73;;;1.60;;
5995;SDS011;3026;53.612;7.278;2023-02-24T02:50:43;6.17;;;1.40;;
5995;SDS011;3026;53.612;7.278;2023-02-24T02:53:14;5.90;;;1.47;;
5995;SDS011;3026;53.612;7.278;2023-02-24T02:55:49;8.00;;;1.30;;
5995;SDS011;3026;53.612;7.278;2023-02-24T02:58:23;5.90;;;1.77;;
5995;SDS011;3026;53.612;7.278;2023-02-24T03:00:53;4.87;;;1.70;;
5995;SDS011;3026;53.612;7.278;2023-02-24T03:03:27;6.37;;;1.67;;
5995;SDS011;3026;53.612;7.278;2023-02-24T03:06:00;8.97;;;1.63;;
5995;SDS011;3026;53.612;7.278;2023-02-24T03:08:33;9.03;;;1.93;;
5995;SDS011;3026;53.612;7.278;2023-02-24T03:11:03;8.97;;;1.60;;
5995;SDS011;3026;53.612;7.278;2023-02-24T03:13:36;3.43;;;1.37;;
5995;SDS011;3026;53.612;7.278;2023-02-24T03:16:09;7.77;;;1.50;;
5995;SDS011;3026;53.612;7.278;2023-02-24T03:18:41;9.37;;;1.73;;
5995;SDS011;3026;53.612;7.278;2023-02-24T03:21:17;11.57;;;3.60;;
5995;SDS011;3026;53.612;7.278;2023-02-24T03:23:52;9.90;;;1.60;;
5995;SDS011;3026;53.612;7.278;2023-02-24T03:26:21;10.43;;;1.60;;
5995;SDS011;3026;53.612;7.278;2023-02-24T03:28:54;7.43;;;1.53;;
5995;SDS011;3026;53.612;7.278;2023-02-24T03:31:29;9.87;;;2.17;;
5995;SDS011;3026;53.612;7.278;2023-02-24T03:34:04;9.50;;;1.83;;
5995;SDS011;3026;53.612;7.278;2023-02-24T03:36:39;7.13;;;1.70;;
5995;SDS011;3026;53.612;7.278;2023-02-24T03:39:07;9.97;;;2.23;;
5995;SDS011;3026;53.612;7.278;2023-02-24T03:41:38;6.60;;;1.77;;
5995;SDS011;3026;53.612;7.278;2023-02-24T03:44:10;12.20;;;2.00;;
5995;SDS011;3026;53.612;7.278;2023-02-24T03:46:38;12.40;;;1.90;;
5995;SDS011;3026;53.612;7.278;2023-02-24T03:49:07;5.20;;;1.97;;
5995;SDS011;3026;53.612;7.278;2023-02-24T03:51:42;8.77;;;2.07;;
5995;SDS011;3026;53.612;7.278;2023-02-24T03:54:17;9.23;;;1.90;;
5995;SDS011;3026;53.612;7.278;2023-02-24T03:56:56;11.50;;;1.90;;
5995;SDS011;3026;53.612;7.278;2023-02-24T03:59:39;5.03;;;1.43;;
5995;SDS011;3026;53.612;7.278;2023-02-24T04:02:13;5.47;;;1.97;;
5995;SDS011;3026;53.612;7.278;2023-02-24T04:04:44;8.67;;;2.10;;
5995;SDS011;3026;53.612;7.278;2023-02-24T04:07:16;17.27;;;1.87;;
5995;SDS011;3026;53.612;7.278;2023-02-24T04:09:56;9.83;;;1.70;;
5995;SDS011;3026;53.612;7.278;2023-02-24T04:12:34;9.87;;;1.43;;
5995;SDS011;3026;53.612;7.278;2023-02-24T04:15:08;8.77;;;1.83;;
5995;SDS011;3026;53.612;7.278;2023-02-24T04:17:40;9.13;;;2.73;;
5995;SDS011;3026;53.612;7.278;2023-02-24T04:20:12;7.63;;;2.00;;
5995;SDS011;3026;53.612;7.278;2023-02-24T04:22:42;10.53;;;2.73;;
5995;SDS011;3026;53.612;7.278;2023-02-24T04:25:14;10.27;;;2.00;;
5995;SDS011;3026;53.612;7.278;2023-02-24T04:27:43;11.50;;;2.57;;
5995;SDS011;3026;53.612;7.278;2023-02-24T04:30:12;7.77;;;1.63;;
5995;SDS011;3026;53.612;7.278;2023-02-24T04:32:40;7.93;;;1.87;;
5995;SDS011;3026;53.612;7.278;2023-02-24T04:35:09;6.07;;;1.57;;
5995;SDS011;3026;53.612;7.278;2023-02-24T04:37:39;11.10;;;1.70;;
5995;SDS011;3026;53.612;7.278;2023-02-24T04:40:10;12.00;;;2.30;;
5995;SDS011;3026;53.612;7.278;2023-02-24T04:42:41;9.60;;;1.40;;
5995;SDS011;3026;53.612;7.278;2023-02-24T04:45:13;9.93;;;1.80;;
5995;SDS011;3026;53.612;7.278;2023-02-24T04:47:52;10.97;;;2.03;;
5995;SDS011;3026;53.612;7.278;2023-02-24T04:50:26;7.40;;;1.67;;
5995;SDS011;3026;53.612;7.278;2023-02-24T04:52:57;6.83;;;1.70;;
5995;SDS011;3026;53.612;7.278;2023-02-24T04:55:29;10.73;;;1.90;;
5995;SDS011;3026;53.612;7.278;2023-02-24T04:57:58;9.57;;;1.83;;
5995;SDS011;3026;53.612;7.278;2023-02-24T05:00:27;10.50;;;1.50;;
5995;SDS011;3026;53.612;7.278;2023-02-24T05:02:59;7.07;;;1.80;;
5995;SDS011;3026;53.612;7.278;2023-02-24T05:05:27;6.23;;;1.80;;
5995;SDS011;3026;53.612;7.278;2023-02-24T05:07:58;12.03;;;2.43;;
5995;SDS011;3026;53.612;7.278;2023-02-24T05:10:29;9.73;;;2.10;;
5995;SDS011;3026;53.612;7.278;2023-02-24T05:12:57;6.17;;;2.37;;
5995;SDS011;3026;53.612;7.278;2023-02-24T05:15:24;10.23;;;2.33;;
5995;SDS011;3026;53.612;7.278;2023-02-24T05:17:55;8.47;;;1.87;;
5995;SDS011;3026;53.612;7.278;2023-02-24T05:20:24;7.70;;;1.70;;
5995;SDS011;3026;53.612;7.278;2023-02-24T05:23:08;9.67;;;2.20;;
5995;SDS011;3026;53.612;7.278;2023-02-24T05:25:37;10.00;;;2.00;;
5995;SDS011;3026;53.612;7.278;2023-02-24T05:28:07;7.00;;;2.30;;
5995;SDS011;3026;53.612;7.278;2023-02-24T05:30:34;6.93;;;2.00;;
5995;SDS011;3026;53.612;7.278;2023-02-24T05:33:02;6.07;;;1.60;;
5995;SDS011;3026;53.612;7.278;2023-02-24T05:35:34;12.13;;;2.73;;
5995;SDS011;3026;53.612;7.278;2023-02-24T05:38:04;7.97;;;2.03;;
5995;SDS011;3026;53.612;7.278;2023-02-24T05:40:34;9.17;;;2.00;;
5995;SDS011;3026;53.612;7.278;2023-02-24T05:43:10;12.43;;;2.10;;
5995;SDS011;3026;53.612;7.278;2023-02-24T05:45:42;10.03;;;2.27;;
5995;SDS011;3026;53.612;7.278;2023-02-24T05:48:09;4.90;;;1.60;;
5995;SDS011;3026;53.612;7.278;2023-02-24T05:50:36;10.77;;;2.10;;
5995;SDS011;3026;53.612;7.278;2023-02-24T05:53:03;7.60;;;1.90;;
5995;SDS011;3026;53.612;7.278;2023-02-24T05:55:33;12.00;;;2.20;;
5995;SDS011;3026;53.612;7.278;2023-02-24T05:58:00;8.00;;;2.07;;
5995;SDS011;3026;53.612;7.278;2023-02-24T06:00:32;12.00;;;1.77;;
5995;SDS011;3026;53.612;7.278;2023-02-24T06:03:03;12.40;;;2.40;;
5995;SDS011;3026;53.612;7.278;2023-02-24T06:05:34;10.57;;;3.50;;
5995;SDS011;3026;53.612;7.278;2023-02-24T06:08:03;12.47;;;2.57;;
5995;SDS011;3026;53.612;7.278;2023-02-24T06:10:36;11.20;;;1.90;;
5995;SDS011;3026;53.612;7.278;2023-02-24T06:13:04;9.90;;;1.90;;
5995;SDS011;3026;53.612;7.278;2023-02-24T06:15:37;14.47;;;2.43;;
5995;SDS011;3026;53.612;7.278;2023-02-24T06:18:05;10.53;;;2.03;;
5995;SDS011;3026;53.612;7.278;2023-02-24T06:20:35;8.73;;;2.33;;
5995;SDS011;3026;53.612;7.278;2023-02-24T06:23:05;7.23;;;1.70;;
5995;SDS011;3026;53.612;7.278;2023-02-24T06:25:32;9.53;;;2.10;;
5995;SDS011;3026;53.612;7.278;2023-02-24T06:28:03;9.33;;;2.00;;
5995;SDS011;3026;53.612;7.278;2023-02-24T06:30:31;16.40;;;3.03;;
5995;SDS011;3026;53.612;7.278;2023-02-24T06:33:01;9.23;;;1.80;;
5995;SDS011;3026;53.612;7.278;2023-02-24T06:35:30;11.90;;;2.57;;
5995;SDS011;3026;53.612;7.278;2023-02-24T06:37:57;18.17;;;2.67;;
5995;SDS011;3026;53.612;7.278;2023-02-24T06:40:25;10.70;;;3.00;;
5995;SDS011;3026;53.612;7.278;2023-02-24T06:42:55;8.63;;;2.50;;
5995;SDS011;3026;53.612;7.278;2023-02-24T06:45:22;12.43;;;2.43;;
5995;SDS011;3026;53.612;7.278;2023-02-24T06:47:50;10.27;;;2.30;;
5995;SDS011;3026;53.612;7.278;2023-02-24T06:50:20;10.13;;;2.77;;
5995;SDS011;3026;53.612;7.278;2023-02-24T06:52:47;8.43;;;2.50;;
5995;SDS011;3026;53.612;7.278;2023-02-24T06:55:17;10.33;;;3.50;;
5995;SDS011;3026;53.612;7.278;2023-02-24T06:57:54;12.17;;;4.20;;
5995;SDS011;3026;53.612;7.278;2023-02-24T07:00:23;17.73;;;2.90;;
5995;SDS011;3026;53.612;7.278;2023-02-24T07:03:02;15.20;;;3.10;;
5995;SDS011;3026;53.612;7.278;2023-02-24T07:05:45;7.77;;;2.50;;
5995;SDS011;3026;53.612;7.278;2023-02-24T07:08:18;17.10;;;3.73;;
5995;SDS011;3026;53.612;7.278;2023-02-24T07:10:53;16.53;;;2.93;;
5995;SDS011;3026;53.612;7.278;2023-02-24T07:13:24;13.63;;;3.67;;
5995;SDS011;3026;53.612;7.278;2023-02-24T07:15:54;16.83;;;4.00;;
5995;SDS011;3026;53.612;7.278;2023-02-24T07:18:21;16.40;;;2.87;;
5995;SDS011;3026;53.612;7.278;2023-02-24T07:20:52;18.10;;;3.67;;
5995;SDS011;3026;53.612;7.278;2023-02-24T07:23:19;10.80;;;3.07;;
5995;SDS011;3026;53.612;7.278;2023-02-24T07:25:46;10.97;;;2.87;;
5995;SDS011;3026;53.612;7.278;2023-02-24T07:28:13;14.13;;;3.73;;
5995;SDS011;3026;53.612;7.278;2023-02-24T07:30:43;14.27;;;3.90;;
5995;SDS011;3026;53.612;7.278;2023-02-24T07:33:10;11.70;;;5.13;;
5995;SDS011;3026;53.612;7.278;2023-02-24T07:35:38;13.67;;;3.17;;
5995;SDS011;3026;53.612;7.278;2023-02-24T07:38:07;14.50;;;3.40;;
5995;SDS011;3026;53.612;7.278;2023-02-24T07:40:35;14.73;;;3.30;;
5995;SDS011;3026;53.612;7.278;2023-02-24T07:43:02;13.07;;;3.43;;
5995;SDS011;3026;53.612;7.278;2023-02-24T07:45:30;17.17;;;5.37;;
5995;SDS011;3026;53.612;7.278;2023-02-24T07:47:58;14.63;;;3.93;;
5995;SDS011;3026;53.612;7.278;2023-02-24T07:50:25;14.60;;;3.73;;
5995;SDS011;3026;53.612;7.278;2023-02-24T07:52:56;13.00;;;3.47;;
5995;SDS011;3026;53.612;7.278;2023-02-24T07:55:26;12.77;;;3.83;;
5995;SDS011;3026;53.612;7.278;2023-02-24T07:57:55;13.60;;;3.40;;
5995;SDS011;3026;53.612;7.278;2023-02-24T08:00:22;13.90;;;3.93;;
5995;SDS011;3026;53.612;7.278;2023-02-24T08:02:53;16.10;;;3.37;;
5995;SDS011;3026;53.612;7.278;2023-02-24T08:05:22;14.20;;;3.60;;
5995;SDS011;3026;53.612;7.278;2023-02-24T08:07:49;17.53;;;4.07;;
5995;SDS011;3026;53.612;7.278;2023-02-24T08:10:17;16.83;;;2.90;;
5995;SDS011;3026;53.612;7.278;2023-02-24T08:12:53;10.73;;;3.93;;
5995;SDS011;3026;53.612;7.278;2023-02-24T08:15:22;9.67;;;3.37;;
5995;SDS011;3026;53.612;7.278;2023-02-24T08:17:51;14.70;;;3.40;;
5995;SDS011;3026;53.612;7.278;2023-02-24T08:20:19;7.87;;;2.93;;
5995;SDS011;3026;53.612;7.278;2023-02-24T08:22:54;10.03;;;3.80;;
5995;SDS011;3026;53.612;7.278;2023-02-24T08:25:25;9.33;;;3.90;;
5995;SDS011;3026;53.612;7.278;2023-02-24T08:28:02;14.37;;;3.37;;
5995;SDS011;3026;53.612;7.278;2023-02-24T08:30:31;10.20;;;3.30;;
5995;SDS011;3026;53.612;7.278;2023-02-24T08:33:05;14.30;;;3.67;;
5995;SDS011;3026;53.612;7.278;2023-02-24T08:35:34;9.73;;;3.00;;
5995;SDS011;3026;53.612;7.278;2023-02-24T08:38:04;9.87;;;3.07;;
5995;SDS011;3026;53.612;7.278;2023-02-24T08:40:34;16.43;;;3.47;;
5995;SDS011;3026;53.612;7.278;2023-02-24T08:43:18;9.13;;;3.60;;
5995;SDS011;3026;53.612;7.278;2023-02-24T08:45:57;11.10;;;3.77;;
5995;SDS011;3026;53.612;7.278;2023-02-24T08:48:28;12.17;;;3.57;;
5995;SDS011;3026;53.612;7.278;2023-02-24T08:51:04;5.97;;;3.27;;
5995;SDS011;3026;53.612;7.278;2023-02-24T08:53:34;12.80;;;3.47;;
5995;SDS011;3026;53.612;7.278;2023-02-24T08:56:04;13.57;;;3.63;;
5995;SDS011;3026;53.612;7.278;2023-02-24T08:58:38;12.13;;;3.30;;
5995;SDS011;3026;53.612;7.278;2023-02-24T09:01:12;13.97;;;3.30;;
5995;SDS011;3026;53.612;7.278;2023-02-24T09:03:44;13.10;;;3.40;;
5995;SDS011;3026;53.612;7.278;2023-02-24T09:06:13;12.93;;;3.13;;
5995;SDS011;3026;53.612;7.278;2023-02-24T09:08:42;13.33;;;3.90;;
5995;SDS011;3026;53.612;7.278;2023-02-24T09:11:11;14.20;;;3.73;;
5995;SDS011;3026;53.612;7.278;2023-02-24T09:13:41;14.60;;;3.67;;
5995;SDS011;3026;53.612;7.278;2023-02-24T09:16:23;23.20;;;4.30;;
5995;SDS011;3026;53.612;7.278;2023-02-24T09:18:51;25.87;;;4.93;;
5995;SDS011;3026;53.612;7.278;2023-02-24T09:21:31;26.00;;;5.20;;
5995;SDS011;3026;53.612;7.278;2023-02-24T09:24:24;14.67;;;3.80;;
5995;SDS011;3026;53.612;7.278;2023-02-24T09:26:52;23.67;;;4.03;;
5995;SDS011;3026;53.612;7.278;2023-02-24T09:29:24;27.77;;;4.60;;
5995;SDS011;3026;53.612;7.278;2023-02-24T09:32:13;24.37;;;5.83;;
5995;SDS011;3026;53.612;7.278;2023-02-24T09:34:41;34.30;;;5.37;;
5995;SDS011;3026;53.612;7.278;2023-02-24T09:37:09;22.63;;;4.10;;
5995;SDS011;3026;53.612;7.278;2023-02-24T09:39:49;19.93;;;4.47;;
5995;SDS011;3026;53.612;7.278;2023-02-24T09:42:34;29.23;;;5.87;;
5995;SDS011;3026;53.612;7.278;2023-02-24T09:45:15;28.80;;;5.23;;
5995;SDS011;3026;53.612;7.278;2023-02-24T09:47:57;19.83;;;4.23;;
5995;SDS011;3026;53.612;7.278;2023-02-24T09:50:34;25.70;;;4.13;;
5995;SDS011;3026;53.612;7.278;2023-02-24T09:53:11;27.43;;;5.47;;
5995;SDS011;3026;53.612;7.278;2023-02-24T09:55:43;25.60;;;4.67;;
5995;SDS011;3026;53.612;7.278;2023-02-24T09:58:26;30.23;;;5.37;;
5995;SDS011;3026;53.612;7.278;2023-02-24T10:01:06;38.23;;;6.50;;
5995;SDS011;3026;53.612;7.278;2023-02-24T10:03:48;39.27;;;6.00;;
5995;SDS011;3026;53.612;7.278;2023-02-24T10:06:28;23.53;;;4.80;;
5995;SDS011;3026;53.612;7.278;2023-02-24T10:09:02;31.53;;;4.93;;
5995;SDS011;3026;53.612;7.278;2023-02-24T10:11:37;22.77;;;4.10;;
5995;SDS011;3026;53.612;7.278;2023-02-24T10:14:17;20.73;;;4.00;;
5995;SDS011;3026;53.612;7.278;2023-02-24T10:16:52;22.13;;;4.47;;
5995;SDS011;3026;53.612;7.278;2023-02-24T10:19:34;22.90;;;5.40;;
5995;SDS011;3026;53.612;7.278;2023-02-24T10:22:02;20.03;;;4.13;;
5995;SDS011;3026;53.612;7.278;2023-02-24T10:24:47;23.50;;;4.17;;
5995;SDS011;3026;53.612;7.278;2023-02-24T10:27:26;24.70;;;4.77;;
5995;SDS011;3026;53.612;7.278;2023-02-24T10:30:00;30.03;;;5.03;;
5995;SDS011;3026;53.612;7.278;2023-02-24T10:32:39;19.17;;;5.57;;
5995;SDS011;3026;53.612;7.278;2023-02-24T10:35:17;25.00;;;4.77;;
5995;SDS011;3026;53.612;7.278;2023-02-24T10:37:46;21.00;;;4.30;;
5995;SDS011;3026;53.612;7.278;2023-02-24T10:40:14;25.97;;;4.20;;
5995;SDS011;3026;53.612;7.278;2023-02-24T10:43:05;12.43;;;3.27;;
5995;SDS011;3026;53.612;7.278;2023-02-24T10:45:36;15.30;;;2.67;;
5995;SDS011;3026;53.612;7.278;2023-02-24T10:48:14;11.97;;;2.17;;
5995;SDS011;3026;53.612;7.278;2023-02-24T10:50:49;9.60;;;2.20;;
5995;SDS011;3026;53.612;7.278;2023-02-24T10:53:19;12.23;;;2.57;;
5995;SDS011;3026;53.612;7.278;2023-02-24T10:56:00;10.40;;;2.07;;
5995;SDS011;3026;53.612;7.278;2023-02-24T10:58:46;9.10;;;2.00;;
5995;SDS011;3026;53.612;7.278;2023-02-24T11:01:39;12.60;;;2.80;;
5995;SDS011;3026;53.612;7.278;2023-02-24T11:04:20;10.33;;;2.33;;
5995;SDS011;3026;53.612;7.278;2023-02-24T11:07:10;17.00;;;3.10;;
5995;SDS011;3026;53.612;7.278;2023-02-24T11:09:48;14.07;;;3.53;;
5995;SDS011;3026;53.612;7.278;2023-02-24T11:12:35;16.53;;;3.10;;
5995;SDS011;3026;53.612;7.278;2023-02-24T11:15:27;14.07;;;2.90;;
5995;SDS011;3026;53.612;7.278;2023-02-24T11:18:16;20.63;;;3.30;;
5995;SDS011;3026;53.612;7.278;2023-02-24T11:20:47;16.43;;;3.30;;
5995;SDS011;3026;53.612;7.278;2023-02-24T11:23:18;15.57;;;3.53;;
5995;SDS011;3026;53.612;7.278;2023-02-24T11:25:48;18.33;;;5.13;;
5995;SDS011;3026;53.612;7.278;2023-02-24T11:28:21;16.50;;;3.43;;
5995;SDS011;3026;53.612;7.278;2023-02-24T11:31:11;18.53;;;4.30;;
5995;SDS011;3026;53.612;7.278;2023-02-24T11:33:54;21.10;;;4.03;;
5995;SDS011;3026;53.612;7.278;2023-02-24T11:36:32;23.27;;;4.13;;
5995;SDS011;3026;53.612;7.278;2023-02-24T11:39:12;19.03;;;4.77;;
5995;SDS011;3026;53.612;7.278;2023-02-24T11:41:55;30.00;;;6.30;;
5995;SDS011;3026;53.612;7.278;2023-02-24T11:44:26;21.40;;;4.37;;
5995;SDS011;3026;53.612;7.278;2023-02-24T11:47:00;23.87;;;4.60;;
5995;SDS011;3026;53.612;7.278;2023-02-24T11:49:41;25.17;;;4.70;;
5995;SDS011;3026;53.612;7.278;2023-02-24T11:52:15;19.27;;;3.47;;
5995;SDS011;3026;53.612;7.278;2023-02-24T11:54:46;20.50;;;4.33;;
5995;SDS011;3026;53.612;7.278;2023-02-24T11:59:50;24.87;;;4.33;;
5995;SDS011;3026;53.612;7.278;2023-02-24T12:02:26;15.53;;;2.87;;
5995;SDS011;3026;53.612;7.278;2023-02-24T12:05:05;14.57;;;3.53;;
5995;SDS011;3026;53.612;7.278;2023-02-24T12:07:40;24.47;;;3.80;;
5995;SDS011;3026;53.612;7.278;2023-02-24T12:10:12;14.30;;;3.20;;
5995;SDS011;3026;53.612;7.278;2023-02-24T12:12:43;13.50;;;2.60;;
5995;SDS011;3026;53.612;7.278;2023-02-24T12:15:18;11.70;;;2.40;;
5995;SDS011;3026;53.612;7.278;2023-02-24T12:17:52;11.37;;;3.03;;
5995;SDS011;3026;53.612;7.278;2023-02-24T12:20:26;14.47;;;2.50;;
5995;SDS011;3026;53.612;7.278;2023-02-24T12:22:58;14.73;;;3.13;;
5995;SDS011;3026;53.612;7.278;2023-02-24T12:25:31;14.67;;;2.40;;
5995;SDS011;3026;53.612;7.278;2023-02-24T12:28:11;8.63;;;2.00;;
5995;SDS011;3026;53.612;7.278;2023-02-24T12:30:50;13.70;;;2.40;;
5995;SDS011;3026;53.612;7.278;2023-02-24T12:33:30;8.00;;;1.97;;
5995;SDS011;3026;53.612;7.278;2023-02-24T12:36:11;6.73;;;1.90;;
5995;SDS011;3026;53.612;7.278;2023-02-24T12:38:52;8.30;;;1.93;;
5995;SDS011;3026;53.612;7.278;2023-02-24T12:41:34;10.17;;;2.13;;
5995;SDS011;3026;53.612;7.278;2023-02-24T12:44:14;11.93;;;2.20;;
5995;SDS011;3026;53.612;7.278;2023-02-24T12:46:53;5.73;;;1.40;;
5995;SDS011;3026;53.612;7.278;2023-02-24T12:49:38;11.67;;;2.00;;
5995;SDS011;3026;53.612;7.278;2023-02-24T12:52:23;11.37;;;1.90;;
5995;SDS011;3026;53.612;7.278;2023-02-24T12:54:59;10.70;;;2.00;;
5995;SDS011;3026;53.612;7.278;2023-02-24T12:57:36;10.13;;;2.20;;
5995;SDS011;3026;53.612;7.278;2023-02-24T13:00:15;10.63;;;1.77;;
5995;SDS011;3026;53.612;7.278;2023-02-24T13:02:53;10.70;;;1.93;;
5995;SDS011;3026;53.612;7.278;2023-02-24T13:05:27;4.93;;;1.70;;
5995;SDS011;3026;53.612;7.278;2023-02-24T13:10:50;7.33;;;1.73;;
5995;SDS011;3026;53.612;7.278;2023-02-24T13:13:30;9.37;;;1.97;;
5995;SDS011;3026;53.612;7.278;2023-02-24T13:16:02;9.17;;;1.87;;
5995;SDS011;3026;53.612;7.278;2023-02-24T13:18:30;13.80;;;2.17;;
5995;SDS011;3026;53.612;7.278;2023-02-24T13:21:03;9.40;;;1.93;;
5995;SDS011;3026;53.612;7.278;2023-02-24T13:23:33;15.57;;;2.23;;
5995;SDS011;3026;53.612;7.278;2023-02-24T13:26:04;9.97;;;2.00;;
5995;SDS011;3026;53.612;7.278;2023-02-24T13:28:32;12.63;;;2.30;;
5995;SDS011;3026;53.612;7.278;2023-02-24T13:31:03;6.93;;;1.97;;
5995;SDS011;3026;53.612;7.278;2023-02-24T13:33:33;6.90;;;2.00;;
5995;SDS011;3026;53.612;7.278;2023-02-24T13:36:06;10.53;;;2.20;;
5995;SDS011;3026;53.612;7.278;2023-02-24T13:38:37;11.67;;;1.97;;
5995;SDS011;3026;53.612;7.278;2023-02-24T13:41:17;9.30;;;2.23;;
5995;SDS011;3026;53.612;7.278;2023-02-24T13:43:54;9.53;;;1.83;;
5995;SDS011;3026;53.612;7.278;2023-02-24T13:46:25;12.97;;;2.00;;
5995;SDS011;3026;53.612;7.278;2023-02-24T13:49:17;10.93;;;2.70;;
5995;SDS011;3026;53.612;7.278;2023-02-24T13:51:53;6.27;;;1.60;;
5995;SDS011;3026;53.612;7.278;2023-02-24T13:54:40;11.53;;;1.73;;
5995;SDS011;3026;53.612;7.278;2023-02-24T13:57:44;14.47;;;3.03;;
5995;SDS011;3026;53.612;7.278;2023-02-24T14:00:25;12.73;;;2.80;;
5995;SDS011;3026;53.612;7.278;2023-02-24T14:02:59;18.43;;;2.93;;
5995;SDS011;3026;53.612;7.278;2023-02-24T14:05:27;8.47;;;1.23;;
5995;SDS011;3026;53.612;7.278;2023-02-24T14:07:57;6.07;;;1.80;;
5995;SDS011;3026;53.612;7.278;2023-02-24T14:10:26;7.67;;;1.90;;
5995;SDS011;3026;53.612;7.278;2023-02-24T14:13:00;8.17;;;2.37;;
5995;SDS011;3026;53.612;7.278;2023-02-24T14:15:31;11.97;;;2.10;;
5995;SDS011;3026;53.612;7.278;2023-02-24T14:18:00;13.17;;;2.40;;
5995;SDS011;3026;53.612;7.278;2023-02-24T14:20:30;12.70;;;3.47;;
5995;SDS011;3026;53.612;7.278;2023-02-24T14:22:57;13.00;;;2.73;;
5995;SDS011;3026;53.612;7.278;2023-02-24T14:25:26;14.77;;;3.20;;
5995;SDS011;3026;53.612;7.278;2023-02-24T14:28:01;19.37;;;4.20;;
5995;SDS011;3026;53.612;7.278;2023-02-24T14:30:30;16.70;;;3.27;;
5995;SDS011;3026;53.612;7.278;2023-02-24T14:33:01;11.57;;;3.30;;
5995;SDS011;3026;53.612;7.278;2023-02-24T14:35:31;18.50;;;3.30;;
5995;SDS011;3026;53.612;7.278;2023-02-24T14:38:00;22.43;;;3.63;;
5995;SDS011;3026;53.612;7.278;2023-02-24T14:40:28;18.10;;;3.57;;
5995;SDS011;3026;53.612;7.278;2023-02-24T14:42:57;23.17;;;4.07;;
5995;SDS011;3026;53.612;7.278;2023-02-24T14:45:27;12.13;;;3.50;;
5995;SDS011;3026;53.612;7.278;2023-02-24T14:48:04;21.57;;;3.73;;
5995;SDS011;3026;53.612;7.278;2023-02-24T14:50:33;21.10;;;3.47;;
5995;SDS011;3026;53.612;7.278;2023-02-24T14:53:01;16.97;;;3.13;;
5995;SDS011;3026;53.612;7.278;2023-02-24T14:55:31;18.53;;;3.57;;
5995;SDS011;3026;53.612;7.278;2023-02-24T14:58:03;17.30;;;2.70;;
5995;SDS011;3026;53.612;7.278;2023-02-24T15:00:40;10.40;;;2.30;;
5995;SDS011;3026;53.612;7.278;2023-02-24T15:03:16;12.97;;;2.80;;
5995;SDS011;3026;53.612;7.278;2023-02-24T15:05:48;11.07;;;2.13;;
5995;SDS011;3026;53.612;7.278;2023-02-24T15:08:23;14.20;;;2.70;;
5995;SDS011;3026;53.612;7.278;2023-02-24T15:10:55;18.00;;;3.33;;
5995;SDS011;3026;53.612;7.278;2023-02-24T15:13:25;14.57;;;3.03;;
5995;SDS011;3026;53.612;7.278;2023-02-24T15:16:04;7.80;;;2.43;;
5995;SDS011;3026;53.612;7.278;2023-02-24T15:18:37;13.43;;;2.10;;
5995;SDS011;3026;53.612;7.278;2023-02-24T15:21:13;11.80;;;2.30;;
5995;SDS011;3026;53.612;7.278;2023-02-24T15:23:48;6.27;;;2.10;;
5995;SDS011;3026;53.612;7.278;2023-02-24T15:26:24;6.93;;;2.23;;
5995;SDS011;3026;53.612;7.278;2023-02-24T15:28:57;12.70;;;3.00;;
5995;SDS011;3026;53.612;7.278;2023-02-24T15:31:29;10.70;;;2.73;;
5995;SDS011;3026;53.612;7.278;2023-02-24T15:33:57;11.87;;;2.43;;
5995;SDS011;3026;53.612;7.278;2023-02-24T15:36:26;19.10;;;4.53;;
5995;SDS011;3026;53.612;7.278;2023-02-24T15:38:57;26.00;;;5.17;;
5995;SDS011;3026;53.612;7.278;2023-02-24T15:41:36;18.50;;;3.27;;
5995;SDS011;3026;53.612;7.278;2023-02-24T15:44:19;12.53;;;2.83;;
5995;SDS011;3026;53.612;7.278;2023-02-24T15:46:58;14.73;;;2.83;;
5995;SDS011;3026;53.612;7.278;2023-02-24T15:49:26;7.93;;;2.07;;
5995;SDS011;3026;53.612;7.278;2023-02-24T15:51:56;12.50;;;2.53;;